ローマ/フィウミチーノ の空港の天気 - METARとTAF

ローマ・レオナルド・ダ・ビンチ国際空港 ( LIRF / FCO ) - イタリア ローマ
飛行場実況気象(Metar)
観測時間04/27 06:50 CEST (04/27 04:50 UTC)
風向・風速不定 1m/s
視程10km以上
天気現象
なし
気温12℃
湿度82%
気圧1012hPa
METARLIRF 270450Z VRB02KT CAVOK 12/09 Q1012 NOSIG
過去の天気等 Google飛行場航空写真 Wunderground天気予報

過去48時間のMETAR

飛行場予報(TAF)
発表時間: 4/27 01:00 CEST (4/26 23:00 UTC)
予報対象時間: 27日2時 CEST ~ 28日8時 CEST
風向・風速不定 2m/s
視程10km以上
少しの雲 雲底高度 610m
27日2時 CEST ~ 27日4時 CEST に徐々に
視程4,000m
天気現象もや
27日4時 CEST ~ 27日8時 CEST に一時的に
視程1,500m
27日8時 CEST ~ 27日10時 CEST に徐々に
視程10km以上
27日11時 CEST ~ 27日13時 CEST に徐々に
風向・風速西 5m/s
27日18時 CEST ~ 27日20時 CEST に徐々に
風向・風速不定 3m/s
TAF LIRF 262300Z 2700/2806 VRB04KT 9999 FEW020
BECMG 2700/2702 4000 BR
TEMPO 2702/2706 1500
BECMG 2706/2708 9999
BECMG 2709/2711 28010KT
BECMG 2716/2718 VRB05KT